createdAt,value
2018-12-20T00:01:52.062Z,9.57
2018-12-20T00:04:24.191Z,8.60
2018-12-20T00:06:58.143Z,7.30
2018-12-20T00:09:30.050Z,8.63
2018-12-20T00:12:01.906Z,5.33
2018-12-20T00:14:34.105Z,5.37
2018-12-20T00:17:12.322Z,11.40
2018-12-20T00:19:44.803Z,12.03
2018-12-20T00:22:19.370Z,5.87
2018-12-20T00:24:51.795Z,8.67
2018-12-20T00:27:27.002Z,9.93
2018-12-20T00:30:00.057Z,6.30
2018-12-20T00:32:35.093Z,9.53
2018-12-20T00:35:07.530Z,6.20
2018-12-20T00:37:43.192Z,7.27
2018-12-20T00:40:18.094Z,6.63
2018-12-20T00:42:53.164Z,8.37
2018-12-20T00:45:25.390Z,7.37
2018-12-20T00:48:00.036Z,12.47
2018-12-20T00:50:32.318Z,8.33
2018-12-20T00:53:04.528Z,8.00
2018-12-20T00:55:36.846Z,8.73
2018-12-20T00:58:23.031Z,7.60
2018-12-20T01:00:58.174Z,8.37
2018-12-20T01:03:35.046Z,7.63
2018-12-20T01:06:07.269Z,7.33
2018-12-20T01:08:41.985Z,6.87
2018-12-20T01:11:16.937Z,6.10
2018-12-20T01:13:51.890Z,8.33
2018-12-20T01:16:30.880Z,7.90
2018-12-20T01:19:03.254Z,8.13
2018-12-20T01:21:35.420Z,8.67
2018-12-20T01:24:10.191Z,7.27
2018-12-20T01:26:45.985Z,8.07
2018-12-20T01:29:24.832Z,5.93
2018-12-20T01:31:59.991Z,8.03
2018-12-20T01:34:36.728Z,11.27
2018-12-20T01:37:09.353Z,8.60
2018-12-20T01:39:41.416Z,8.27
2018-12-20T01:42:16.406Z,8.00
2018-12-20T01:44:53.445Z,4.80
2018-12-20T01:47:22.736Z,8.30
2018-12-20T01:49:54.809Z,10.13
2018-12-20T01:52:29.588Z,5.77
2018-12-20T01:55:06.234Z,6.07
2018-12-20T01:57:38.908Z,9.63
2018-12-20T02:00:14.201Z,7.23
2018-12-20T02:02:46.189Z,7.00
2018-12-20T02:05:20.962Z,9.40
2018-12-20T02:07:56.013Z,9.03
2018-12-20T02:10:30.833Z,8.37
2018-12-20T02:13:03.231Z,8.87
2018-12-20T02:15:35.118Z,9.60
2018-12-20T02:18:09.896Z,8.20
2018-12-20T02:20:42.314Z,9.73
2018-12-20T02:23:15.236Z,8.73
2018-12-20T02:25:50.805Z,10.23
2018-12-20T02:28:23.346Z,11.20
2018-12-20T02:30:55.636Z,11.57
2018-12-20T02:33:30.999Z,10.63
2018-12-20T02:36:03.297Z,10.23
2018-12-20T02:38:35.155Z,9.60
2018-12-20T02:41:09.827Z,9.47
2018-12-20T02:43:43.318Z,10.73
2018-12-20T02:46:15.355Z,7.93
2018-12-20T02:48:50.288Z,12.03
2018-12-20T02:51:22.805Z,9.47
2018-12-20T02:53:58.467Z,11.00
2018-12-20T02:56:31.401Z,10.43
2018-12-20T02:59:03.498Z,10.77
2018-12-20T03:01:36.464Z,7.27
2018-12-20T03:04:09.507Z,11.00
2018-12-20T03:06:41.880Z,9.37
2018-12-20T03:09:13.864Z,10.17
2018-12-20T03:11:48.521Z,8.93
2018-12-20T03:14:20.954Z,8.40
2018-12-20T03:16:52.934Z,9.80
2018-12-20T03:19:27.660Z,10.07
2018-12-20T03:22:00.477Z,9.10
2018-12-20T03:24:33.314Z,10.70
2018-12-20T03:27:05.639Z,9.93
2018-12-20T03:29:38.507Z,7.67
2018-12-20T03:32:14.036Z,11.90
2018-12-20T03:34:46.689Z,10.13
2018-12-20T03:37:18.873Z,10.10
2018-12-20T03:39:53.534Z,9.13
2018-12-20T03:42:25.841Z,10.10
2018-12-20T03:44:58.966Z,8.77
2018-12-20T03:47:30.844Z,9.87
2018-12-20T03:50:03.405Z,8.73
2018-12-20T03:52:35.986Z,12.53
2018-12-20T03:55:08.092Z,10.37
2018-12-20T03:57:40.051Z,9.50
2018-12-20T04:00:12.115Z,11.03
2018-12-20T04:02:44.505Z,10.73
2018-12-20T04:05:20.077Z,12.17
2018-12-20T04:07:55.723Z,11.33
2018-12-20T04:10:28.110Z,14.23
2018-12-20T04:13:00.508Z,11.17
2018-12-20T04:15:37.728Z,12.33
2018-12-20T04:18:09.648Z,26.03
2018-12-20T04:20:42.916Z,55.20
2018-12-20T04:23:15.529Z,11.83
2018-12-20T04:25:47.573Z,13.77
2018-12-20T04:28:23.544Z,15.03
2018-12-20T04:30:58.924Z,12.00
2018-12-20T04:33:33.918Z,12.40
2018-12-20T04:36:06.097Z,11.13
2018-12-20T04:38:38.855Z,12.90
2018-12-20T04:41:10.863Z,11.17
2018-12-20T04:43:43.188Z,10.10
2018-12-20T04:46:18.510Z,9.57
2018-12-20T04:48:50.790Z,9.27
2018-12-20T04:51:22.620Z,10.73
2018-12-20T04:53:57.492Z,17.23
2018-12-20T04:56:32.756Z,10.20
2018-12-20T04:59:04.994Z,13.57
2018-12-20T05:01:40.824Z,11.53
2018-12-20T05:04:13.366Z,11.60
2018-12-20T05:06:49.434Z,16.87
2018-12-20T05:09:25.549Z,12.23
2018-12-20T05:12:00.833Z,13.17
2018-12-20T05:14:33.150Z,13.23
2018-12-20T05:17:05.998Z,15.07
2018-12-20T05:19:40.885Z,12.97
2018-12-20T05:22:13.323Z,14.40
2018-12-20T05:24:45.182Z,13.07
2018-12-20T05:27:17.524Z,12.53
2018-12-20T05:29:49.520Z,11.77
2018-12-20T05:32:23.250Z,12.73
2018-12-20T05:34:56.428Z,11.23
2018-12-20T05:37:31.727Z,12.90
2018-12-20T05:40:08.914Z,11.47
2018-12-20T05:42:44.049Z,11.10
2018-12-20T05:45:16.624Z,14.33
2018-12-20T05:47:49.442Z,14.97
2018-12-20T05:50:21.330Z,11.80
2018-12-20T05:52:56.412Z,13.10
2018-12-20T05:55:28.821Z,11.03
2018-12-20T05:58:01.216Z,11.67
2018-12-20T06:00:36.130Z,11.43
2018-12-20T06:03:08.918Z,12.37
2018-12-20T06:05:43.864Z,14.20
2018-12-20T06:08:19.393Z,13.10
2018-12-20T06:10:52.123Z,12.30
2018-12-20T06:13:25.219Z,15.37
2018-12-20T06:15:58.914Z,12.03
2018-12-20T06:18:30.993Z,11.47
2018-12-20T06:21:06.043Z,12.13
2018-12-20T06:23:38.197Z,12.87
2018-12-20T06:26:10.406Z,15.50
2018-12-20T06:28:42.485Z,12.70
2018-12-20T06:31:14.614Z,14.20
2018-12-20T06:33:52.657Z,16.23
2018-12-20T06:36:25.042Z,10.70
2018-12-20T06:38:58.251Z,17.27
2018-12-20T06:41:28.637Z,10.43
2018-12-20T06:44:07.063Z,15.43
2018-12-20T06:46:36.818Z,16.63
2018-12-20T06:49:09.431Z,18.40
2018-12-20T06:51:44.277Z,16.87
2018-12-20T06:54:16.438Z,12.53
2018-12-20T06:56:48.527Z,11.47
2018-12-20T06:59:20.691Z,11.37
2018-12-20T07:01:52.604Z,13.90
2018-12-20T07:04:24.824Z,12.93
2018-12-20T07:06:59.920Z,16.53
2018-12-20T07:09:32.090Z,14.60
2018-12-20T07:12:07.161Z,17.37
2018-12-20T07:14:40.647Z,14.43
2018-12-20T07:17:15.361Z,14.87
2018-12-20T07:19:50.634Z,16.93
2018-12-20T07:22:22.893Z,11.13
2018-12-20T07:24:55.050Z,13.93
2018-12-20T07:27:30.152Z,14.83
2018-12-20T07:30:02.270Z,14.40
2018-12-20T07:32:37.825Z,16.70
2018-12-20T07:35:10.412Z,16.23
2018-12-20T07:37:42.713Z,14.33
2018-12-20T07:40:14.598Z,15.30
2018-12-20T07:42:46.514Z,14.97
2018-12-20T07:45:21.342Z,16.17
2018-12-20T07:47:58.305Z,16.07
2018-12-20T07:50:31.694Z,16.57
2018-12-20T07:53:04.335Z,13.47
2018-12-20T07:55:36.607Z,16.40
2018-12-20T07:58:15.304Z,15.67
2018-12-20T08:00:48.806Z,16.70
2018-12-20T08:03:20.629Z,17.33
2018-12-20T08:05:55.833Z,16.43
2018-12-20T08:08:28.399Z,17.27
2018-12-20T08:11:00.299Z,19.17
2018-12-20T08:13:32.315Z,19.77
2018-12-20T08:16:07.174Z,17.00
2018-12-20T08:18:43.379Z,19.23
2018-12-20T08:21:22.602Z,18.07
2018-12-20T08:23:54.990Z,17.07
2018-12-20T08:26:27.948Z,15.40
2018-12-20T08:29:02.938Z,17.53
2018-12-20T08:31:35.336Z,16.23
2018-12-20T08:34:07.317Z,15.97
2018-12-20T08:36:39.593Z,19.23
2018-12-20T08:39:12.217Z,18.97
2018-12-20T08:41:48.816Z,21.80
2018-12-20T08:44:23.619Z,18.00
2018-12-20T08:47:12.083Z,19.63
2018-12-20T08:49:47.392Z,20.93
2018-12-20T08:52:22.820Z,16.70
2018-12-20T08:54:55.227Z,20.97
2018-12-20T08:57:30.103Z,20.80
2018-12-20T09:00:09.428Z,22.03
2018-12-20T09:02:42.573Z,19.43
2018-12-20T09:05:17.322Z,20.23
2018-12-20T09:07:49.575Z,22.17
2018-12-20T09:10:24.243Z,18.90
2018-12-20T09:12:56.539Z,19.43
2018-12-20T09:15:31.863Z,20.10
2018-12-20T09:18:07.454Z,18.93
2018-12-20T09:20:40.017Z,18.13
2018-12-20T09:23:14.846Z,18.87
2018-12-20T09:25:47.456Z,23.00
2018-12-20T09:28:22.319Z,20.67
2018-12-20T09:30:57.408Z,24.83
2018-12-20T09:33:29.700Z,19.80
2018-12-20T09:36:01.856Z,19.73
2018-12-20T09:38:34.438Z,26.80
2018-12-20T09:41:06.606Z,19.30
2018-12-20T09:43:38.650Z,17.30
2018-12-20T09:46:11.011Z,16.00
2018-12-20T09:48:46.395Z,18.03
2018-12-20T09:51:21.368Z,18.23
2018-12-20T09:53:53.874Z,16.40
2018-12-20T09:56:28.532Z,18.37
2018-12-20T09:59:00.822Z,19.03
2018-12-20T10:01:33.028Z,20.27
2018-12-20T10:04:13.750Z,22.77
2018-12-20T10:06:46.392Z,23.90
2018-12-20T10:09:18.620Z,21.20
2018-12-20T10:11:56.899Z,19.30
2018-12-20T10:14:28.901Z,18.00
2018-12-20T10:17:04.827Z,16.03
2018-12-20T10:19:37.093Z,20.27
2018-12-20T10:22:09.032Z,23.33
2018-12-20T10:24:41.141Z,19.80
2018-12-20T10:27:16.125Z,20.87
2018-12-20T10:29:51.166Z,20.87
2018-12-20T10:32:27.401Z,22.03
2018-12-20T10:34:59.825Z,23.23
2018-12-20T10:37:34.744Z,28.17
2018-12-20T10:40:09.690Z,22.43
2018-12-20T10:42:42.293Z,22.30
2018-12-20T10:45:14.674Z,24.13
2018-12-20T10:47:46.454Z,21.73
2018-12-20T10:50:22.769Z,21.80
2018-12-20T10:52:54.746Z,20.70
2018-12-20T10:55:30.178Z,16.97
2018-12-20T10:58:05.639Z,19.73
2018-12-20T11:00:44.875Z,18.17
2018-12-20T11:03:23.126Z,17.97
2018-12-20T11:06:01.518Z,17.53
2018-12-20T11:08:35.521Z,15.80
2018-12-20T11:11:10.190Z,17.20
2018-12-20T11:13:42.882Z,17.13
2018-12-20T11:16:15.242Z,16.23
2018-12-20T11:18:50.979Z,16.33
2018-12-20T11:21:23.598Z,19.23
2018-12-20T11:23:57.992Z,15.87
2018-12-20T11:26:30.432Z,16.10
2018-12-20T11:29:09.604Z,15.57
2018-12-20T11:31:42.015Z,16.93
2018-12-20T11:34:14.398Z,14.10
2018-12-20T11:36:50.253Z,14.30
2018-12-20T11:39:24.927Z,14.33
2018-12-20T11:41:57.074Z,14.93
2018-12-20T11:44:31.753Z,14.10
2018-12-20T11:47:08.730Z,15.73
2018-12-20T11:49:41.556Z,13.90
2018-12-20T11:52:13.337Z,14.40
2018-12-20T11:54:48.020Z,14.83
2018-12-20T11:57:20.432Z,17.80
2018-12-20T11:59:55.064Z,13.57
2018-12-20T12:02:28.044Z,16.47
2018-12-20T12:05:04.443Z,15.70
2018-12-20T12:07:39.790Z,14.93
2018-12-20T12:10:12.956Z,19.93
2018-12-20T12:12:45.885Z,16.60
2018-12-20T12:15:18.284Z,19.20
2018-12-20T12:17:54.407Z,16.83
2018-12-20T12:20:27.370Z,17.00
2018-12-20T12:23:03.946Z,18.60
2018-12-20T12:25:43.273Z,17.77
2018-12-20T12:28:18.492Z,20.27
2018-12-20T12:30:53.357Z,17.97
2018-12-20T12:33:26.785Z,20.40
2018-12-20T12:35:58.912Z,17.73
2018-12-20T12:38:30.896Z,16.40
2018-12-20T12:41:02.878Z,18.60
2018-12-20T12:43:34.971Z,17.70
2018-12-20T12:46:09.764Z,22.33
2018-12-20T12:48:41.987Z,19.17
2018-12-20T12:51:17.183Z,20.87
2018-12-20T12:53:52.031Z,20.80
2018-12-20T12:56:25.103Z,22.77
2018-12-20T12:58:57.695Z,21.23
2018-12-20T13:01:32.423Z,22.00
2018-12-20T13:04:08.182Z,20.87
2018-12-20T13:06:43.652Z,21.77
2018-12-20T13:09:20.504Z,21.97
2018-12-20T13:11:55.060Z,22.17
2018-12-20T13:14:28.372Z,20.03
2018-12-20T13:17:10.119Z,23.20
2018-12-20T13:19:42.791Z,25.33
2018-12-20T13:22:18.040Z,22.77
2018-12-20T13:24:52.766Z,20.93
2018-12-20T13:27:25.128Z,23.30
2018-12-20T13:29:57.935Z,21.50
2018-12-20T13:32:30.685Z,24.47
2018-12-20T13:35:02.594Z,27.53
2018-12-20T13:37:38.525Z,26.63
2018-12-20T13:40:10.731Z,26.73
2018-12-20T13:42:43.857Z,25.00
2018-12-20T13:45:15.979Z,25.00
2018-12-20T13:47:51.177Z,28.43
2018-12-20T13:50:23.147Z,30.40
2018-12-20T13:52:55.404Z,26.93
2018-12-20T13:55:27.494Z,25.27
2018-12-20T13:57:59.810Z,25.80
2018-12-20T14:00:33.966Z,28.20
2018-12-20T14:03:09.266Z,27.00
2018-12-20T14:05:44.117Z,29.90
2018-12-20T14:08:19.273Z,26.53
2018-12-20T14:10:55.323Z,26.97
2018-12-20T14:13:27.580Z,27.77
2018-12-20T14:16:00.104Z,27.77
2018-12-20T14:18:32.847Z,27.97
2018-12-20T14:21:04.807Z,31.03
2018-12-20T14:23:37.931Z,28.53
2018-12-20T14:26:09.714Z,25.23
2018-12-20T14:28:41.636Z,27.17
2018-12-20T14:31:17.489Z,30.70
2018-12-20T14:33:52.636Z,25.03
2018-12-20T14:36:30.645Z,30.97
2018-12-20T14:39:03.920Z,27.50
2018-12-20T14:41:36.980Z,27.60
2018-12-20T14:44:12.407Z,32.43
2018-12-20T14:46:47.751Z,26.93
2018-12-20T14:49:20.681Z,29.47
2018-12-20T14:52:00.893Z,29.23
2018-12-20T14:54:36.627Z,26.40
2018-12-20T14:57:12.779Z,27.50
2018-12-20T14:59:51.916Z,30.30
2018-12-20T15:02:26.886Z,28.97
2018-12-20T15:05:01.794Z,30.50
2018-12-20T15:07:42.963Z,29.13
2018-12-20T15:10:14.910Z,34.87
2018-12-20T15:12:46.829Z,30.73
2018-12-20T15:15:19.051Z,30.27
2018-12-20T15:18:01.296Z,32.33
2018-12-20T15:20:40.514Z,32.57
2018-12-20T15:23:09.042Z,32.97
2018-12-20T15:25:44.559Z,29.30
2018-12-20T15:28:19.219Z,30.57
2018-12-20T15:30:54.387Z,37.47
2018-12-20T15:33:33.707Z,35.97
2018-12-20T15:36:09.215Z,34.83
2018-12-20T15:38:42.446Z,34.70
2018-12-20T15:44:15.786Z,38.23
2018-12-20T15:46:57.223Z,28.10
2018-12-20T15:49:29.961Z,32.87
2018-12-20T15:52:04.801Z,35.30
2018-12-20T15:54:39.701Z,35.90
2018-12-20T15:57:12.027Z,32.60
2018-12-20T15:59:45.529Z,36.03
2018-12-20T16:02:18.252Z,34.00
2018-12-20T16:04:51.185Z,35.67
2018-12-20T16:07:23.392Z,33.67
2018-12-20T16:09:56.302Z,33.23
2018-12-20T16:12:33.460Z,31.83
2018-12-20T16:15:06.432Z,34.47
2018-12-20T16:17:38.742Z,32.73
2018-12-20T16:20:11.460Z,28.87
2018-12-20T16:22:46.654Z,28.97
2018-12-20T16:25:19.178Z,32.47
2018-12-20T16:27:51.288Z,31.03
2018-12-20T16:30:23.734Z,31.13
2018-12-20T16:32:55.567Z,33.23
2018-12-20T16:35:28.771Z,27.30
2018-12-20T16:38:07.003Z,34.20
2018-12-20T16:40:43.750Z,33.70
2018-12-20T16:43:18.970Z,34.43
2018-12-20T16:45:55.565Z,30.83
2018-12-20T16:48:28.880Z,32.33
2018-12-20T16:51:01.597Z,31.80
2018-12-20T16:53:36.337Z,36.13
2018-12-20T16:56:11.457Z,30.90
2018-12-20T16:58:46.423Z,31.97
2018-12-20T17:01:19.857Z,34.13
2018-12-20T17:03:53.031Z,33.23
2018-12-20T17:06:27.874Z,33.93
2018-12-20T17:09:02.848Z,33.60
2018-12-20T17:11:37.727Z,33.77
2018-12-20T17:14:18.266Z,30.13
2018-12-20T17:16:50.823Z,40.73
2018-12-20T17:19:22.609Z,36.70
2018-12-20T17:21:54.975Z,33.77
2018-12-20T17:24:26.962Z,38.73
2018-12-20T17:27:01.818Z,37.50
2018-12-20T17:29:34.033Z,35.43
2018-12-20T17:32:08.994Z,42.30
2018-12-20T17:34:41.061Z,40.73
2018-12-20T17:37:15.630Z,36.80
2018-12-20T17:39:50.662Z,39.40
2018-12-20T17:42:24.100Z,36.30
2018-12-20T17:44:59.100Z,36.57
2018-12-20T17:47:31.934Z,30.67
2018-12-20T17:50:06.411Z,39.77
2018-12-20T17:52:41.530Z,37.80
2018-12-20T17:55:14.294Z,39.97
2018-12-20T17:57:47.965Z,36.20
2018-12-20T18:00:27.992Z,39.83
2018-12-20T18:03:03.007Z,36.57
2018-12-20T18:05:40.278Z,36.27
2018-12-20T18:08:12.493Z,35.23
2018-12-20T18:10:49.649Z,32.03
2018-12-20T18:13:26.724Z,33.50
2018-12-20T18:15:59.961Z,34.90
2018-12-20T18:18:40.145Z,36.90
2018-12-20T18:21:16.207Z,35.67
2018-12-20T18:23:52.079Z,35.07
2018-12-20T18:26:27.491Z,36.10
2018-12-20T18:29:02.971Z,40.20
2018-12-20T18:31:36.876Z,37.37
2018-12-20T18:34:12.364Z,35.47
2018-12-20T18:36:48.532Z,34.57
2018-12-20T18:39:26.343Z,36.73
2018-12-20T18:42:03.213Z,38.27
2018-12-20T18:44:37.400Z,43.97
2018-12-20T18:47:13.796Z,38.70
2018-12-20T18:49:49.312Z,41.60
2018-12-20T18:52:22.820Z,37.80
2018-12-20T18:54:57.949Z,39.53
2018-12-20T18:57:34.061Z,39.97
2018-12-20T19:00:09.257Z,45.27
2018-12-20T19:02:44.308Z,46.03
2018-12-20T19:05:17.739Z,33.67
2018-12-20T19:07:50.402Z,46.67
2018-12-20T19:10:23.039Z,41.33
2018-12-20T19:12:57.883Z,51.97
2018-12-20T19:15:30.130Z,44.73
2018-12-20T19:18:02.405Z,40.40
2018-12-20T19:20:37.378Z,48.77
2018-12-20T19:23:10.257Z,43.80
2018-12-20T19:25:45.337Z,51.13
2018-12-20T19:28:21.103Z,40.77
2018-12-20T19:30:56.607Z,41.53
2018-12-20T19:33:29.410Z,44.97
2018-12-20T19:36:02.075Z,37.80
2018-12-20T19:38:35.077Z,43.03
2018-12-20T19:41:07.702Z,38.37
2018-12-20T19:43:43.724Z,40.43
2018-12-20T19:46:23.028Z,44.10
2018-12-20T19:48:55.711Z,43.57
2018-12-20T19:51:27.587Z,38.70
2018-12-20T19:54:03.209Z,46.77
2018-12-20T19:56:35.221Z,44.90
2018-12-20T19:59:07.246Z,37.80
2018-12-20T20:01:39.820Z,41.87
2018-12-20T20:04:11.691Z,37.57
2018-12-20T20:06:44.778Z,39.97
2018-12-20T20:09:17.074Z,36.47
2018-12-20T20:11:49.782Z,42.03
2018-12-20T20:14:22.127Z,43.53
2018-12-20T20:16:54.252Z,38.60
2018-12-20T20:19:29.481Z,43.83
2018-12-20T20:22:02.335Z,42.73
2018-12-20T20:24:36.056Z,42.93
2018-12-20T20:27:15.542Z,45.93
2018-12-20T20:29:47.654Z,36.83
2018-12-20T20:32:22.471Z,33.53
2018-12-20T20:34:57.649Z,43.97
2018-12-20T20:37:30.631Z,38.73
2018-12-20T20:40:03.187Z,44.13
2018-12-20T20:42:35.320Z,45.30
2018-12-20T20:45:07.573Z,47.60
2018-12-20T20:47:41.483Z,44.60
2018-12-20T20:50:22.359Z,49.17
2018-12-20T20:52:55.048Z,44.57
2018-12-20T20:55:27.287Z,36.97
2018-12-20T20:58:02.145Z,46.13
2018-12-20T21:00:35.677Z,43.23
2018-12-20T21:03:07.590Z,42.80
2018-12-20T21:05:39.636Z,35.87
2018-12-20T21:08:14.239Z,42.27
2018-12-20T21:10:46.365Z,43.53
2018-12-20T21:13:20.946Z,41.03
2018-12-20T21:15:58.034Z,47.10
2018-12-20T21:18:30.208Z,43.93
2018-12-20T21:21:04.218Z,45.13
2018-12-20T21:23:39.897Z,45.37
2018-12-20T21:26:12.318Z,47.67
2018-12-20T21:28:45.338Z,53.80
2018-12-20T21:31:17.808Z,49.73
2018-12-20T21:33:49.599Z,54.23
2018-12-20T21:36:24.969Z,46.87
2018-12-20T21:38:58.336Z,44.53
2018-12-20T21:41:33.986Z,48.47
2018-12-20T21:44:06.036Z,48.30
2018-12-20T21:46:38.266Z,46.87
2018-12-20T21:52:22.622Z,56.80
2018-12-20T21:54:55.214Z,57.57
2018-12-20T21:57:27.612Z,56.10
2018-12-20T22:00:03.877Z,50.80
2018-12-20T22:02:39.100Z,48.43
2018-12-20T22:05:12.450Z,48.93
2018-12-20T22:07:44.616Z,45.47
2018-12-20T22:10:20.699Z,46.10
2018-12-20T22:12:57.173Z,45.77
2018-12-20T22:15:33.177Z,45.27
2018-12-20T22:18:09.419Z,52.17
2018-12-20T22:20:47.211Z,49.10
2018-12-20T22:23:16.654Z,49.60
2018-12-20T22:25:51.562Z,54.43
2018-12-20T22:28:26.764Z,44.67
2018-12-20T22:31:02.845Z,50.87
2018-12-20T22:33:35.138Z,49.43
2018-12-20T22:36:09.944Z,49.37
2018-12-20T22:38:42.395Z,51.63
2018-12-20T22:41:19.557Z,54.30
2018-12-20T22:43:51.987Z,48.03
2018-12-20T22:46:24.725Z,56.37
2018-12-20T22:49:01.393Z,57.60
2018-12-20T22:51:33.907Z,54.53
2018-12-20T22:54:10.758Z,58.23
2018-12-20T22:56:46.008Z,52.33
2018-12-20T22:59:27.097Z,50.77
2018-12-20T23:02:03.059Z,57.40
2018-12-20T23:04:34.896Z,55.33
2018-12-20T23:07:07.007Z,54.47
2018-12-20T23:09:41.574Z,57.20
2018-12-20T23:12:14.108Z,56.83
2018-12-20T23:14:46.569Z,53.07
2018-12-20T23:17:18.686Z,53.77
2018-12-20T23:19:53.775Z,57.07
2018-12-20T23:22:28.877Z,62.53
2018-12-20T23:25:04.167Z,54.00
2018-12-20T23:27:43.218Z,51.80
2018-12-20T23:32:52.193Z,59.10
2018-12-20T23:35:24.697Z,53.40
2018-12-20T23:37:56.560Z,50.80
2018-12-20T23:40:32.642Z,51.50
2018-12-20T23:43:05.625Z,50.03
2018-12-20T23:45:40.179Z,50.10
2018-12-20T23:48:13.482Z,52.97
2018-12-20T23:50:45.532Z,48.53
2018-12-20T23:53:20.301Z,45.47
2018-12-20T23:55:52.884Z,47.83
2018-12-20T23:58:27.850Z,47.77
